Time;durP1;ratioP1;P1;durP2;ratioP2;P2;SDS_P1;SDS_P2;PMS_P1;PMS_P2;Temp;Humidity;BMP_temperature;BMP_pressure;BME280_temperature;BME280_humidity;BME280_pressure;Samples;Min_cycle;Max_cycle;Signal;HPM_P1;HPM_P2
2022/01/20 00:01:46;;;;;;;2.10;2.00;;;4.20;99.90;;;;;;5062429;28;20435;-71
2022/01/20 00:04:42;;;;;;;0.80;0.80;;;4.20;99.90;;;;;;5054864;28;20425;-72
2022/01/20 00:07:35;;;;;;;0.80;0.77;;;4.20;99.90;;;;;;5054246;28;20429;-71
2022/01/20 00:23:18;;;;;;;0.40;0.40;;;4.00;99.90;;;;;;4993908;28;20501;-72
2022/01/20 00:26:09;;;;;;;1.03;0.97;;;4.00;99.90;;;;;;4993811;28;20428;-70
2022/01/20 00:28:59;;;;;;;0.50;0.50;;;4.10;99.90;;;;;;5055918;28;20421;-71
2022/01/20 00:32:02;;;;;;;0.50;0.50;;;4.00;99.90;;;;;;5055620;28;20429;-70
2022/01/20 00:35:13;;;;;;;1.40;0.97;;;4.10;99.90;;;;;;5054544;28;20923;-71
2022/01/20 00:37:59;;;;;;;2.00;0.80;;;4.10;99.90;;;;;;5054683;28;20470;-71
2022/01/20 00:40:47;;;;;;;3.40;1.07;;;4.10;99.90;;;;;;5054549;28;20598;-72
2022/01/20 00:43:34;;;;;;;6.50;1.00;;;4.00;99.90;;;;;;5054760;28;20448;-71
2022/01/20 00:46:21;;;;;;;0.40;0.40;;;3.90;99.90;;;;;;5054244;28;20425;-71
2022/01/20 00:49:09;;;;;;;4.77;1.73;;;3.90;99.90;;;;;;5054593;28;20444;-70
2022/01/20 00:51:56;;;;;;;2.37;1.63;;;3.80;99.90;;;;;;5054051;28;20424;-71
2022/01/20 00:54:43;;;;;;;0.40;0.40;;;3.80;99.90;;;;;;5053858;28;20482;-71
2022/01/20 00:57:30;;;;;;;0.60;0.60;;;3.80;99.90;;;;;;5053961;28;20841;-71
2022/01/20 01:00:17;;;;;;;0.40;0.40;;;3.80;99.90;;;;;;5053218;28;20440;-70
2022/01/20 01:03:04;;;;;;;1.70;0.93;;;3.80;99.90;;;;;;5054195;28;21014;-71
2022/01/20 01:05:58;;;;;;;2.83;0.93;;;3.80;99.90;;;;;;5053886;28;20944;-72
2022/01/20 01:08:45;;;;;;;19.73;2.97;;;3.80;99.90;;;;;;5053416;28;20425;-70
2022/01/20 01:11:32;;;;;;;0.90;0.73;;;3.80;99.90;;;;;;5054391;28;20425;-70
2022/01/20 01:14:21;;;;;;;6.03;1.50;;;3.80;99.90;;;;;;5053511;28;20424;-71
2022/01/20 01:20:19;;;;;;;0.40;0.40;;;3.80;99.90;;;;;;5059309;28;20439;-71
2022/01/20 01:23:07;;;;;;;0.70;0.50;;;3.70;99.90;;;;;;5062728;28;20457;-72
2022/01/20 01:25:55;;;;;;;1.37;0.60;;;3.70;99.90;;;;;;5035597;28;20487;-71
2022/01/20 01:28:44;;;;;;;4.87;0.80;;;3.60;99.90;;;;;;5033422;28;20571;-71
2022/01/20 01:31:35;;;;;;;1.53;0.60;;;3.50;99.90;;;;;;5035296;28;20427;-70
2022/01/20 01:34:23;;;;;;;6.70;3.00;;;3.50;99.90;;;;;;5034379;28;20450;-70
2022/01/20 01:37:34;;;;;;;0.43;0.43;;;3.50;99.90;;;;;;5033553;28;20429;-69
2022/01/20 01:40:18;;;;;;;0.40;0.40;;;3.60;99.90;;;;;;5033104;28;20484;-70
2022/01/20 01:43:13;;;;;;;1.27;0.70;;;3.50;99.90;;;;;;5033519;28;20457;-71
2022/01/20 01:46:00;;;;;;;0.87;0.87;;;3.50;99.90;;;;;;5037200;28;20912;-70
2022/01/20 01:48:48;;;;;;;1.07;0.60;;;3.40;99.90;;;;;;5036333;28;20429;-70
2022/01/20 01:51:35;;;;;;;0.40;0.40;;;3.40;99.90;;;;;;5038162;28;20432;-72
2022/01/20 01:54:21;;;;;;;0.80;0.77;;;3.30;99.90;;;;;;5039231;28;20453;-70
2022/01/20 01:57:10;;;;;;;1.80;1.70;;;3.20;99.90;;;;;;5036468;28;20435;-70
2022/01/20 01:59:57;;;;;;;0.60;0.60;;;3.20;99.90;;;;;;5036900;28;20444;-70
2022/01/20 02:02:44;;;;;;;0.50;0.50;;;;;;;;;;5037628;28;20464;-70
2022/01/20 02:05:33;;;;;;;0.50;0.50;;;3.10;99.90;;;;;;5037605;28;20440;-71
2022/01/20 02:08:32;;;;;;;1.57;1.47;;;3.20;99.90;;;;;;5035909;28;20444;-70
2022/01/20 02:20:36;;;;;;;0.70;0.60;;;3.00;99.90;;;;;;5036560;28;20496;-70
2022/01/20 02:23:25;;;;;;;0.43;0.43;;;2.90;99.90;;;;;;5037598;28;20497;-70
2022/01/20 02:26:12;;;;;;;3.90;1.00;;;2.90;99.90;;;;;;5036579;28;20453;-70
2022/01/20 02:28:59;;;;;;;6.60;2.00;;;2.80;99.90;;;;;;5035586;28;20441;-69
2022/01/20 02:31:47;;;;;;;2.70;0.80;;;2.80;99.90;;;;;;5036519;28;20425;-70
2022/01/20 02:34:34;;;;;;;1.03;0.93;;;2.80;99.90;;;;;;5036040;28;20860;-70
2022/01/20 02:37:22;;;;;;;0.73;0.73;;;2.70;99.90;;;;;;5035093;28;20422;-70
2022/01/20 02:40:34;;;;;;;5.37;2.00;;;2.70;99.90;;;;;;5035683;28;20880;-70
2022/01/20 02:46:26;;;;;;;2.50;0.67;;;2.50;99.90;;;;;;5036324;28;20775;-70
2022/01/20 02:49:15;;;;;;;14.07;1.17;;;2.50;99.90;;;;;;5035160;28;20441;-70
2022/01/20 02:52:02;;;;;;;2.60;0.70;;;2.50;99.90;;;;;;5040892;28;20439;-70
2022/01/20 02:54:51;;;;;;;4.37;1.43;;;2.40;99.90;;;;;;5049438;28;20424;-71
2022/01/20 02:57:38;;;;;;;0.40;0.40;;;2.40;99.90;;;;;;5066050;28;20433;-70
2022/01/20 03:00:25;;;;;;;1.23;0.80;;;2.50;99.90;;;;;;5075995;28;20436;-71
2022/01/20 03:03:12;;;;;;;1.17;0.60;;;2.60;99.90;;;;;;5076272;28;20530;-70
2022/01/20 03:05:59;;;;;;;0.40;0.40;;;2.60;99.90;;;;;;5075814;28;20420;-70
2022/01/20 03:08:46;;;;;;;0.63;0.63;;;2.70;99.90;;;;;;5075848;28;20431;-69
2022/01/20 03:11:35;;;;;;;1.60;1.00;;;2.60;99.90;;;;;;5076133;28;20428;-71
2022/01/20 03:14:22;;;;;;;2.10;1.07;;;2.80;99.90;;;;;;5088023;28;20423;-72
2022/01/20 03:17:09;;;;;;;4.43;1.07;;;2.70;99.90;;;;;;5080912;28;20431;-71
2022/01/20 03:19:56;;;;;;;3.90;1.10;;;2.60;99.90;;;;;;5075386;28;20868;-71
2022/01/20 03:22:43;;;;;;;0.40;0.40;;;2.60;99.90;;;;;;5075393;28;20427;-71
2022/01/20 03:25:30;;;;;;;0.40;0.40;;;2.60;99.90;;;;;;5075854;28;20431;-72
2022/01/20 03:28:19;;;;;;;0.40;0.40;;;2.50;99.90;;;;;;5075580;28;20434;-70
2022/01/20 03:31:06;;;;;;;0.40;0.40;;;2.40;99.90;;;;;;5074319;28;20444;-71
2022/01/20 03:33:52;;;;;;;0.40;0.40;;;2.40;99.90;;;;;;5075735;28;20453;-71
2022/01/20 03:36:39;;;;;;;0.40;0.40;;;2.30;99.90;;;;;;5079827;28;20439;-71
2022/01/20 03:39:26;;;;;;;2.87;2.50;;;2.30;99.90;;;;;;5088207;28;20459;-72
2022/01/20 03:42:13;;;;;;;3.20;0.70;;;2.30;99.90;;;;;;5085396;28;20427;-70
2022/01/20 03:45:02;;;;;;;2.00;0.90;;;2.30;99.90;;;;;;5076249;28;20420;-72
2022/01/20 03:47:51;;;;;;;0.40;0.40;;;2.40;99.90;;;;;;5076062;28;20419;-70
2022/01/20 03:53:43;;;;;;;3.50;0.63;;;2.60;99.90;;;;;;5075255;28;20440;-70
2022/01/20 03:56:31;;;;;;;0.40;0.40;;;2.80;99.90;;;;;;5075454;28;20419;-70
2022/01/20 03:59:18;;;;;;;2.83;1.53;;;2.80;99.90;;;;;;5074690;28;20439;-70
2022/01/20 04:02:06;;;;;;;3.70;1.17;;;2.90;99.90;;;;;;5075410;28;20424;-70
2022/01/20 04:04:53;;;;;;;0.87;0.87;;;3.10;99.90;;;;;;5075745;28;20608;-71
2022/01/20 04:07:40;;;;;;;3.27;0.97;;;3.00;99.90;;;;;;5074226;28;20432;-71
2022/01/20 04:10:27;;;;;;;7.37;1.53;;;3.10;99.90;;;;;;5074595;28;20447;-70
2022/01/20 04:13:14;;;;;;;0.50;0.50;;;3.10;99.90;;;;;;5075091;28;20415;-71
2022/01/20 04:16:11;;;;;;;1.37;0.50;;;3.10;99.90;;;;;;5074978;28;20464;-70
2022/01/20 04:19:00;;;;;;;3.80;2.50;;;3.00;99.90;;;;;;5074003;28;20785;-71
2022/01/20 04:21:47;;;;;;;0.80;0.80;;;2.90;99.90;;;;;;5074712;28;20844;-69
2022/01/20 04:24:34;;;;;;;1.77;0.60;;;2.80;99.90;;;;;;5074468;28;20987;-70
2022/01/20 04:27:21;;;;;;;4.07;0.70;;;2.70;99.90;;;;;;5074369;28;20438;-70
2022/01/20 04:30:08;;;;;;;0.80;0.80;;;2.70;99.90;;;;;;5074733;28;20443;-72
2022/01/20 04:32:55;;;;;;;0.43;0.43;;;2.70;99.90;;;;;;5074669;28;20810;-71
2022/01/20 04:35:44;;;;;;;2.27;0.90;;;2.70;99.90;;;;;;5074645;28;20426;-72
2022/01/20 04:38:31;;;;;;;4.57;1.03;;;2.70;99.90;;;;;;5074205;28;21009;-70
2022/01/20 04:41:18;;;;;;;3.47;3.03;;;2.70;99.90;;;;;;5074772;28;20430;-70
2022/01/20 04:44:08;;;;;;;6.57;1.37;;;2.60;99.90;;;;;;5074438;28;20477;-69
2022/01/20 04:47:02;;;;;;;1.57;1.47;;;2.00;99.90;;;;;;5074102;28;20433;-69
2022/01/20 04:59:04;;;;;;;1.67;1.37;;;1.00;99.90;;;;;;5053495;28;20456;-69
2022/01/20 05:01:51;;;;;;;1.67;1.50;;;0.80;99.90;;;;;;5054610;28;20431;-69
2022/01/20 05:04:39;;;;;;;1.07;0.50;;;0.80;99.90;;;;;;5054617;28;20476;-69
2022/01/20 05:07:28;;;;;;;1.70;0.50;;;0.80;99.90;;;;;;5059016;28;20429;-69
2022/01/20 05:10:16;;;;;;;1.00;0.70;;;0.70;99.90;;;;;;5065147;28;20464;-69
2022/01/20 05:13:11;;;;;;;0.57;0.57;;;0.80;99.90;;;;;;5056360;28;20475;-69
2022/01/20 05:15:58;;;;;;;1.10;0.57;;;0.90;99.90;;;;;;5054494;28;20433;-69
2022/01/20 05:18:45;;;;;;;1.47;1.37;;;0.90;99.90;;;;;;5056642;28;20470;-69
2022/01/20 05:21:32;;;;;;;1.33;0.87;;;0.90;99.90;;;;;;5061945;28;20507;-70
2022/01/20 05:24:20;;;;;;;0.50;0.50;;;1.00;99.90;;;;;;5068905;28;20474;-69
2022/01/20 05:27:08;;;;;;;0.40;0.40;;;1.00;99.90;;;;;;5081132;28;20935;-69
2022/01/20 05:29:56;;;;;;;2.73;0.70;;;1.00;99.90;;;;;;5080824;28;20455;-69
2022/01/20 05:32:43;;;;;;;0.50;0.50;;;1.10;99.90;;;;;;5082188;28;20415;-70
2022/01/20 05:35:30;;;;;;;3.10;0.90;;;1.10;99.90;;;;;;5081548;28;20432;-69
2022/01/20 05:38:17;;;;;;;0.50;0.50;;;1.20;99.90;;;;;;5081941;28;20792;-69
2022/01/20 05:41:03;;;;;;;1.03;0.80;;;1.20;99.90;;;;;;5110807;22;20495;-69
2022/01/20 05:43:52;;;;;;;0.50;0.50;;;1.30;99.90;;;;;;5079704;28;20842;-70
2022/01/20 05:46:44;;;;;;;4.00;0.90;;;1.30;99.90;;;;;;5079684;28;20517;-70
2022/01/20 05:49:31;;;;;;;0.80;0.50;;;1.20;99.90;;;;;;5078938;28;20446;-71
2022/01/20 05:52:19;;;;;;;0.50;0.50;;;1.20;99.90;;;;;;5078587;28;20443;-69
2022/01/20 05:55:06;;;;;;;2.97;0.70;;;1.20;99.90;;;;;;5079896;28;20420;-68
2022/01/20 05:57:53;;;;;;;0.80;0.80;;;;;;;;;;5078580;28;20482;-70
2022/01/20 06:00:42;;;;;;;0.60;0.60;;;1.20;99.90;;;;;;5079128;28;20440;-69
2022/01/20 06:03:39;;;;;;;0.40;0.40;;;1.30;99.90;;;;;;5078630;28;21036;-70
2022/01/20 06:06:26;;;;;;;4.87;1.50;;;1.30;99.90;;;;;;5078088;28;20485;-68
2022/01/20 06:09:13;;;;;;;2.10;1.00;;;1.40;99.90;;;;;;5077931;28;20428;-69
2022/01/20 06:12:01;;;;;;;4.30;1.23;;;1.50;99.90;;;;;;5078747;28;20419;-68
2022/01/20 06:14:47;;;;;;;0.87;0.60;;;1.50;99.90;;;;;;5079460;28;20556;-70
2022/01/20 06:17:36;;;;;;;5.80;1.83;;;1.50;99.90;;;;;;5081544;28;20454;-70
2022/01/20 06:20:23;;;;;;;4.77;0.63;;;1.60;99.90;;;;;;5079039;28;20898;-69
2022/01/20 06:23:11;;;;;;;0.70;0.70;;;1.50;99.90;;;;;;5078886;28;20430;-69
2022/01/20 06:26:02;;;;;;;1.53;0.83;;;1.50;99.90;;;;;;5058620;28;20426;-72
2022/01/20 06:28:49;;;;;;;0.50;0.50;;;1.50;99.90;;;;;;5059161;28;20507;-70
2022/01/20 06:31:36;;;;;;;2.00;0.90;;;1.50;99.90;;;;;;5055816;28;20425;-69
2022/01/20 06:34:24;;;;;;;1.67;0.70;;;1.50;99.90;;;;;;5056466;28;20424;-69
2022/01/20 06:37:11;;;;;;;0.50;0.50;;;1.40;99.90;;;;;;5057678;28;20444;-69
2022/01/20 06:39:58;;;;;;;0.53;0.50;;;1.30;99.90;;;;;;5056057;28;20873;-71
2022/01/20 06:42:45;;;;;;;3.00;0.90;;;1.20;99.90;;;;;;5055540;28;20439;-68
2022/01/20 06:45:32;;;;;;;0.50;0.50;;;1.20;99.90;;;;;;5055074;28;20456;-69
2022/01/20 06:48:19;;;;;;;1.00;0.63;;;1.20;99.90;;;;;;5056683;28;20421;-70
2022/01/20 06:51:07;;;;;;;2.30;0.90;;;1.20;99.90;;;;;;5055519;28;20448;-69
2022/01/20 06:53:54;;;;;;;0.50;0.50;;;1.20;99.90;;;;;;5055997;28;20743;-69
2022/01/20 06:56:42;;;;;;;1.87;0.87;;;1.10;99.90;;;;;;5056075;28;20425;-70
2022/01/20 06:59:28;;;;;;;9.60;1.13;;;0.90;99.90;;;;;;5056100;28;20444;-69
2022/01/20 07:02:16;;;;;;;2.93;0.60;;;0.90;99.90;;;;;;5055795;28;20429;-70
2022/01/20 07:05:03;;;;;;;0.60;0.60;;;0.90;99.90;;;;;;5055803;28;20471;-69
2022/01/20 07:07:52;;;;;;;0.90;0.73;;;0.90;99.90;;;;;;5054855;28;20964;-70
2022/01/20 07:10:39;;;;;;;5.80;0.67;;;0.90;99.90;;;;;;5057550;28;20458;-70
2022/01/20 07:13:26;;;;;;;1.10;0.83;;;0.90;99.90;;;;;;5056633;28;20429;-69
2022/01/20 07:16:13;;;;;;;0.50;0.50;;;0.90;99.90;;;;;;5056119;28;20425;-70
2022/01/20 07:18:59;;;;;;;0.50;0.50;;;0.70;99.90;;;;;;5056289;28;20436;-70
2022/01/20 07:21:46;;;;;;;0.97;0.97;;;0.70;99.90;;;;;;5055452;28;20854;-69
2022/01/20 07:24:35;;;;;;;10.00;1.00;;;0.70;99.90;;;;;;5066363;28;20472;-68
2022/01/20 07:27:22;;;;;;;4.00;0.70;;;0.70;99.90;;;;;;5074462;28;20428;-69
2022/01/20 07:30:10;;;;;;;0.50;0.50;;;0.80;99.90;;;;;;5074517;28;20459;-68
2022/01/20 07:32:57;;;;;;;1.13;0.53;;;0.80;99.90;;;;;;5076206;28;20427;-68
2022/01/20 07:35:44;;;;;;;2.30;0.93;;;0.80;99.90;;;;;;5075603;28;20420;-70
2022/01/20 07:38:31;;;;;;;1.27;0.70;;;0.90;99.90;;;;;;5074931;28;20960;-68
2022/01/20 07:41:19;;;;;;;9.80;1.13;;;0.90;99.90;;;;;;5075080;28;20456;-68
2022/01/20 07:44:06;;;;;;;2.30;1.00;;;0.90;99.90;;;;;;5074072;28;20459;-67
2022/01/20 07:46:53;;;;;;;2.50;0.77;;;0.90;99.90;;;;;;5072382;28;20439;-69
2022/01/20 07:49:40;;;;;;;0.47;0.47;;;0.90;99.90;;;;;;5082611;28;20530;-68
2022/01/20 07:52:27;;;;;;;0.47;0.47;;;0.80;99.90;;;;;;5081662;28;20799;-68
2022/01/20 07:55:15;;;;;;;1.40;1.00;;;0.80;99.90;;;;;;5074823;28;20476;-68
2022/01/20 07:58:03;;;;;;;1.20;0.70;;;0.80;99.90;;;;;;5074682;28;20420;-67
2022/01/20 08:00:50;;;;;;;4.63;1.37;;;0.80;99.90;;;;;;5074258;28;20505;-69
2022/01/20 08:03:37;;;;;;;0.50;0.50;;;0.90;99.90;;;;;;5069585;28;21174;-67
2022/01/20 08:06:24;;;;;;;0.50;0.50;;;0.80;99.90;;;;;;5055880;28;20428;-68
2022/01/20 08:09:10;;;;;;;0.70;0.70;;;0.80;99.90;;;;;;5050949;28;20447;-68
2022/01/20 08:11:57;;;;;;;1.83;0.80;;;0.90;99.90;;;;;;5062825;28;20951;-69
2022/01/20 08:14:45;;;;;;;0.70;0.50;;;1.00;99.90;;;;;;5054196;28;20472;-68
2022/01/20 08:17:32;;;;;;;0.57;0.57;;;1.00;99.90;;;;;;5050162;28;20478;-68
2022/01/20 08:20:19;;;;;;;5.10;0.70;;;1.10;99.90;;;;;;5056403;28;20445;-67
2022/01/20 08:23:07;;;;;;;0.60;0.60;;;1.20;99.90;;;;;;5053424;28;20428;-68
2022/01/20 08:25:54;;;;;;;1.97;1.30;;;1.20;99.90;;;;;;5054587;28;20460;-70
2022/01/20 08:28:42;;;;;;;3.03;0.97;;;1.20;99.90;;;;;;5053566;28;20416;-69
2022/01/20 08:31:31;;;;;;;16.03;1.77;;;1.30;99.90;;;;;;5054155;28;20453;-68
2022/01/20 08:34:18;;;;;;;5.43;0.80;;;1.30;99.90;;;;;;5053769;28;20440;-68
2022/01/20 08:37:05;;;;;;;2.53;0.50;;;1.20;99.90;;;;;;5054585;28;20432;-68
2022/01/20 08:39:52;;;;;;;2.80;1.50;;;1.30;99.90;;;;;;5054381;28;20456;-68
2022/01/20 08:42:39;;;;;;;3.97;1.20;;;1.30;99.90;;;;;;5064160;28;20432;-69
2022/01/20 08:45:29;;;;;;;0.50;0.50;;;1.30;99.90;;;;;;5053685;28;20467;-68
2022/01/20 08:48:17;;;;;;;9.63;2.73;;;1.40;99.90;;;;;;5053835;28;20428;-69
2022/01/20 08:51:05;;;;;;;2.40;0.90;;;1.40;99.90;;;;;;5055015;28;20451;-68
2022/01/20 08:53:52;;;;;;;3.90;1.03;;;1.50;99.90;;;;;;5060441;28;20427;-68
2022/01/20 08:56:39;;;;;;;2.00;1.03;;;1.50;99.90;;;;;;5073487;28;20439;-69
2022/01/20 08:59:26;;;;;;;0.60;0.60;;;1.60;99.90;;;;;;5079709;28;21135;-68
2022/01/20 09:02:13;;;;;;;2.77;0.90;;;1.80;99.90;;;;;;5071766;28;20597;-66
2022/01/20 09:05:02;;;;;;;1.43;0.60;;;2.00;99.90;;;;;;5064302;28;20471;-66
2022/01/20 09:07:49;;;;;;;2.30;0.93;;;2.10;99.90;;;;;;5058747;28;20490;-65
2022/01/20 09:10:38;;;;;;;2.70;1.40;;;2.30;99.90;;;;;;5059533;28;20455;-66
2022/01/20 09:16:29;;;;;;;1.90;1.53;;;2.30;99.90;;;;;;5074263;28;20443;-65
2022/01/20 09:19:17;;;;;;;1.37;1.27;;;2.30;99.90;;;;;;5074133;28;20501;-66
2022/01/20 09:22:06;;;;;;;0.90;0.70;;;2.30;99.90;;;;;;5076645;28;20428;-68
2022/01/20 09:24:53;;;;;;;9.43;1.23;;;2.40;99.90;;;;;;5077272;28;20511;-67
2022/01/20 09:27:39;;;;;;;0.40;0.40;;;2.50;99.90;;;;;;5088331;28;20946;-66
2022/01/20 09:30:27;;;;;;;0.50;0.50;;;2.50;99.90;;;;;;5074727;28;20479;-66
2022/01/20 09:33:23;;;;;;;0.60;0.60;;;2.50;99.90;;;;;;5086916;28;20427;-67
2022/01/20 09:36:12;;;;;;;0.60;0.60;;;2.50;99.90;;;;;;5073121;28;20433;-67
2022/01/20 09:39:00;;;;;;;1.90;0.70;;;2.50;99.90;;;;;;5076942;28;20439;-66
2022/01/20 09:41:49;;;;;;;0.50;0.50;;;2.50;99.90;;;;;;5088914;28;20442;-66
2022/01/20 09:44:36;;;;;;;0.93;0.93;;;2.30;99.90;;;;;;5070951;28;20464;-71
2022/01/20 09:47:25;;;;;;;4.10;1.27;;;2.20;99.90;;;;;;5086401;28;20956;-66
2022/01/20 09:50:14;;;;;;;5.40;1.23;;;2.10;99.90;;;;;;5089670;28;20473;-66
2022/01/20 09:53:02;;;;;;;1.27;0.60;;;2.20;99.90;;;;;;5067203;28;20447;-66
2022/01/20 09:55:51;;;;;;;0.50;0.50;;;2.20;99.90;;;;;;5057714;28;20429;-65
2022/01/20 09:58:38;;;;;;;7.93;1.33;;;2.30;99.90;;;;;;5064057;28;20428;-66
2022/01/20 10:01:40;;;;;;;3.90;0.73;;;2.40;99.90;;;;;;5072694;28;20971;-66
2022/01/20 10:04:29;;;;;;;2.00;0.60;;;2.70;99.90;;;;;;5070916;28;20442;-67
2022/01/20 10:07:16;;;;;;;4.83;0.80;;;2.80;99.90;;;;;;5074530;28;20415;-66
2022/01/20 10:10:04;;;;;;;0.40;0.40;;;2.90;99.90;;;;;;5074809;28;20437;-66
2022/01/20 10:13:03;;;;;;;0.40;0.40;;;2.80;99.90;;;;;;5062950;28;20431;-66
2022/01/20 10:16:01;;;;;;;1.37;1.10;;;2.70;99.90;;;;;;5076449;28;20434;-66
2022/01/20 10:18:53;;;;;;;0.77;0.67;;;2.60;99.90;;;;;;5076107;28;20970;-65
2022/01/20 10:21:40;;;;;;;1.63;0.70;;;2.60;99.90;;;;;;5052835;28;20432;-66
2022/01/20 10:24:28;;;;;;;0.40;0.40;;;2.50;99.90;;;;;;5064727;28;20432;-66
2022/01/20 10:27:15;;;;;;;0.97;0.97;;;2.60;99.90;;;;;;5071929;28;20444;-67
2022/01/20 10:30:07;;;;;;;5.20;1.07;;;2.60;99.90;;;;;;5072407;28;20932;-65
2022/01/20 10:32:57;;;;;;;1.33;1.23;;;2.70;99.90;;;;;;5068055;28;20415;-66
2022/01/20 10:35:44;;;;;;;1.97;0.87;;;2.70;99.90;;;;;;5076147;28;20504;-65
2022/01/20 10:38:31;;;;;;;2.20;0.80;;;2.80;99.90;;;;;;5067211;28;20435;-66
2022/01/20 10:41:29;;;;;;;0.40;0.40;;;2.90;99.90;;;;;;5056189;28;20522;-66
2022/01/20 10:44:16;;;;;;;3.17;1.70;;;2.90;99.90;;;;;;5055467;28;20421;-66
2022/01/20 10:47:05;;;;;;;8.07;2.20;;;2.90;99.90;;;;;;5055701;28;20413;-66
2022/01/20 10:49:52;;;;;;;0.93;0.67;;;2.80;99.90;;;;;;5054228;28;20940;-65
2022/01/20 10:52:44;;;;;;;4.87;1.43;;;2.70;99.90;;;;;;5053970;28;20427;-66
2022/01/20 10:55:34;;;;;;;1.57;0.50;;;2.70;99.90;;;;;;5065069;28;20468;-66
2022/01/20 10:58:23;;;;;;;2.50;0.93;;;2.70;99.90;;;;;;5074042;28;20419;-68
2022/01/20 11:01:17;;;;;;;1.50;0.60;;;2.80;99.90;;;;;;5074404;28;20217;-70
2022/01/20 11:04:05;;;;;;;2.60;1.07;;;2.80;99.90;;;;;;5075210;28;20987;-70
2022/01/20 11:06:55;;;;;;;9.20;1.70;;;2.80;99.90;;;;;;5073661;28;20474;-70
2022/01/20 11:09:45;;;;;;;8.43;0.97;;;2.90;99.90;;;;;;5066932;28;20842;-69
2022/01/20 11:12:34;;;;;;;3.83;1.40;;;3.00;99.90;;;;;;5076627;28;20432;-69
2022/01/20 11:15:23;;;;;;;1.80;1.03;;;3.00;99.90;;;;;;5093751;28;20435;-69
2022/01/20 11:18:11;;;;;;;5.63;1.43;;;3.00;99.90;;;;;;5060162;28;21053;-69
2022/01/20 11:21:01;;;;;;;3.90;0.93;;;2.90;99.90;;;;;;5054048;28;21127;-69
2022/01/20 11:23:48;;;;;;;2.23;0.87;;;2.90;99.90;;;;;;5054024;28;20474;-69
2022/01/20 11:26:35;;;;;;;5.40;0.70;;;3.00;99.90;;;;;;5054674;28;20479;-72
2022/01/20 11:29:25;;;;;;;0.77;0.77;;;3.00;99.90;;;;;;5053090;28;20530;-70
2022/01/20 11:32:21;;;;;;;8.03;0.77;;;3.00;99.90;;;;;;5053184;28;20417;-70
2022/01/20 11:35:11;;;;;;;4.40;1.70;;;3.00;99.90;;;;;;5069821;28;20427;-69
2022/01/20 11:38:00;;;;;;;24.47;1.90;;;3.10;99.90;;;;;;5065525;28;20451;-69
2022/01/20 11:40:52;;;;;;;3.43;1.47;;;3.00;99.90;;;;;;5070653;28;20567;-69
2022/01/20 11:43:43;;;;;;;0.90;0.70;;;3.10;99.90;;;;;;5075012;28;20446;-69
2022/01/20 11:46:39;;;;;;;1.67;0.97;;;3.10;99.90;;;;;;5072061;28;20470;-70
2022/01/20 11:49:35;;;;;;;1.67;1.57;;;3.20;99.90;;;;;;5080551;28;20983;-70
2022/01/20 11:52:24;;;;;;;1.07;0.87;;;3.20;99.90;;;;;;5058684;28;20439;-70
2022/01/20 11:55:14;;;;;;;7.93;1.40;;;3.10;99.90;;;;;;5082139;28;20507;-69
2022/01/20 11:58:10;;;;;;;2.20;1.00;;;3.10;99.90;;;;;;5077503;28;20424;-69
2022/01/20 12:00:59;;;;;;;0.50;0.50;;;3.20;99.90;;;;;;5080184;28;20455;-70
2022/01/20 12:03:51;;;;;;;0.87;0.87;;;3.50;99.90;;;;;;5073943;28;20508;-70
2022/01/20 12:06:42;;;;;;;1.03;0.93;;;3.60;99.90;;;;;;5075640;28;20462;-70
2022/01/20 12:09:31;;;;;;;1.70;1.10;;;3.70;99.90;;;;;;5077698;28;20439;-70
2022/01/20 12:12:26;;;;;;;7.87;1.20;;;3.80;99.90;;;;;;5076727;28;20424;-74
2022/01/20 12:15:15;;;;;;;1.80;1.10;;;3.80;99.90;;;;;;5071684;28;20416;-72
2022/01/20 12:18:03;;;;;;;3.17;1.30;;;3.80;99.90;;;;;;5076280;28;20420;-69
2022/01/20 12:20:50;;;;;;;2.20;1.07;;;3.80;99.90;;;;;;5084149;28;20451;-70
2022/01/20 12:23:42;;;;;;;1.70;0.80;;;3.80;99.90;;;;;;5082574;28;20407;-70
2022/01/20 12:26:34;;;;;;;3.57;0.80;;;3.70;99.90;;;;;;5082460;28;20986;-69
2022/01/20 12:29:34;;;;;;;1.00;1.00;;;3.50;99.90;;;;;;5085118;28;20423;-70
2022/01/20 12:32:24;;;;;;;1.20;1.10;;;3.40;99.90;;;;;;5085399;28;20439;-69
2022/01/20 12:35:11;;;;;;;4.43;1.33;;;3.30;99.90;;;;;;5084957;28;20427;-70
2022/01/20 12:37:58;;;;;;;1.60;1.50;;;3.40;99.90;;;;;;5082578;28;20444;-70
2022/01/20 12:40:48;;;;;;;1.57;1.10;;;3.40;99.90;;;;;;5081584;28;20455;-69
2022/01/20 12:43:41;;;;;;;0.83;0.80;;;3.50;99.90;;;;;;5096474;28;20440;-68
2022/01/20 12:46:32;;;;;;;3.43;0.90;;;3.70;99.90;;;;;;5095427;28;20455;-69
2022/01/20 12:49:20;;;;;;;0.60;0.60;;;4.00;99.90;;;;;;5088890;28;20427;-69
2022/01/20 12:52:08;;;;;;;0.50;0.50;;;4.20;99.90;;;;;;5084465;28;20493;-69
2022/01/20 12:54:56;;;;;;;4.20;1.03;;;4.50;99.90;;;;;;5098078;28;20427;-68
2022/01/20 12:57:43;;;;;;;23.13;1.67;;;4.50;99.90;;;;;;5109869;28;20426;-68
2022/01/20 13:00:30;;;;;;;1.77;1.27;;;4.50;99.90;;;;;;5087802;28;20439;-68
2022/01/20 13:03:18;;;;;;;2.13;1.10;;;4.50;99.90;;;;;;5091309;28;20423;-68
2022/01/20 13:06:08;;;;;;;0.77;0.60;;;4.40;99.90;;;;;;5080041;28;20481;-71
2022/01/20 13:09:06;;;;;;;3.37;0.70;;;4.10;99.90;;;;;;5089799;28;20499;-70
2022/01/20 13:11:57;;;;;;;3.80;1.20;;;4.00;99.90;;;;;;5087804;28;20435;-70
2022/01/20 13:14:46;;;;;;;5.10;1.43;;;3.80;99.90;;;;;;5070183;28;20428;-70
2022/01/20 13:17:35;;;;;;;1.03;0.73;;;3.70;99.90;;;;;;5071507;28;20436;-70
2022/01/20 13:20:24;;;;;;;4.73;0.90;;;3.60;99.90;;;;;;5071901;28;20454;-70
2022/01/20 13:23:54;;;;;;;1.87;0.90;;;3.60;99.90;;;;;;5073565;28;20429;-69
2022/01/20 13:26:18;;;;;;;6.43;0.77;;;3.60;99.90;;;;;;5073702;28;20523;-71
2022/01/20 13:29:06;;;;;;;4.40;1.20;;;3.60;99.90;;;;;;5073280;28;20428;-69
2022/01/20 13:31:57;;;;;;;0.50;0.50;;;3.70;99.90;;;;;;5084485;28;20455;-69
2022/01/20 13:35:00;;;;;;;9.13;2.10;;;4.00;99.90;;;;;;5092066;28;20411;-69
2022/01/20 13:38:00;;;;;;;0.80;0.80;;;4.00;99.90;;;;;;5082608;28;20469;-70
2022/01/20 13:40:47;;;;;;;0.70;0.70;;;3.90;99.90;;;;;;5094368;28;20458;-70
2022/01/20 13:47:04;;;;;;;1.00;0.60;;;3.90;99.90;;;;;;5093553;28;20581;-70
2022/01/20 13:49:54;;;;;;;0.40;0.40;;;4.10;99.90;;;;;;5090556;28;20451;-70
2022/01/20 13:52:41;;;;;;;4.93;1.13;;;4.10;99.90;;;;;;5098055;28;20443;-69
2022/01/20 13:55:33;;;;;;;0.40;0.40;;;3.90;99.90;;;;;;5094433;28;20435;-69
2022/01/20 13:58:23;;;;;;;1.93;1.27;;;3.80;99.90;;;;;;5088183;28;20434;-69
2022/01/20 14:01:12;;;;;;;2.30;0.50;;;3.80;99.90;;;;;;5089286;28;20443;-70
2022/01/20 14:03:59;;;;;;;4.33;0.80;;;3.50;99.90;;;;;;5083240;28;20469;-70
2022/01/20 14:06:46;;;;;;;1.23;1.13;;;3.20;99.90;;;;;;5097333;28;20474;-69
2022/01/20 14:09:34;;;;;;;0.53;0.53;;;3.00;99.90;;;;;;5089186;28;20871;-70
2022/01/20 14:12:22;;;;;;;0.50;0.50;;;2.90;99.90;;;;;;5086955;28;20835;-69
2022/01/20 14:15:09;;;;;;;0.50;0.50;;;2.90;99.90;;;;;;5068112;28;20405;-70
2022/01/20 14:17:58;;;;;;;0.40;0.40;;;2.80;99.90;;;;;;5077958;28;20430;-71
2022/01/20 14:20:46;;;;;;;0.40;0.40;;;2.60;99.90;;;;;;5080992;28;20435;-70
2022/01/20 14:23:33;;;;;;;0.50;0.50;;;2.50;99.90;;;;;;5086539;28;20880;-70
2022/01/20 14:26:27;;;;;;;0.40;0.40;;;2.50;99.90;;;;;;5084304;28;20466;-72
2022/01/20 14:29:15;;;;;;;0.40;0.40;;;2.40;99.90;;;;;;5083941;28;21028;-70
2022/01/20 14:32:03;;;;;;;0.50;0.50;;;2.40;99.90;;;;;;5089363;28;20438;-70
2022/01/20 14:34:50;;;;;;;0.50;0.50;;;2.40;99.90;;;;;;5078777;28;20490;-70
2022/01/20 14:37:38;;;;;;;3.93;1.40;;;2.40;99.90;;;;;;5077697;28;20477;-71
2022/01/20 14:40:26;;;;;;;0.70;0.70;;;2.00;99.90;;;;;;5078019;28;20466;-72
2022/01/20 14:43:12;;;;;;;0.90;0.90;;;1.00;99.90;;;;;;5073096;28;20891;-71
2022/01/20 14:46:02;;;;;;;0.57;0.57;;;0.40;99.90;;;;;;5058250;28;20460;-72
2022/01/20 14:48:49;;;;;;;2.10;2.00;;;-0.30;99.90;;;;;;5055832;28;20440;-72
2022/01/20 14:51:37;;;;;;;0.50;0.50;;;0.10;99.90;;;;;;5059347;28;20440;-72
2022/01/20 14:54:24;;;;;;;0.50;0.50;;;0.00;99.90;;;;;;5056146;28;20417;-72
2022/01/20 14:57:11;;;;;;;0.60;0.60;;;0.00;99.90;;;;;;5069749;28;20518;-71
2022/01/20 14:59:57;;;;;;;0.70;0.70;;;0.00;99.90;;;;;;5077138;28;20458;-71
2022/01/20 15:02:47;;;;;;;0.60;0.60;;;-0.10;99.90;;;;;;5070555;28;20855;-71
2022/01/20 15:05:35;;;;;;;0.50;0.50;;;-0.10;99.90;;;;;;5082284;28;20499;-71
2022/01/20 15:08:22;;;;;;;0.50;0.50;;;-0.10;99.90;;;;;;5074442;28;20465;-71
2022/01/20 15:11:09;;;;;;;1.03;0.93;;;-0.20;99.90;;;;;;5078044;28;20441;-70
2022/01/20 15:13:56;;;;;;;0.47;0.47;;;-0.20;99.90;;;;;;5079915;28;20416;-71
2022/01/20 15:16:43;;;;;;;1.73;1.10;;;-0.20;99.90;;;;;;5080067;28;20419;-71
2022/01/20 15:19:31;;;;;;;0.70;0.70;;;-0.20;99.90;;;;;;5077766;28;20451;-71
2022/01/20 15:22:18;;;;;;;0.60;0.60;;;-0.20;99.90;;;;;;5079979;28;20423;-71
2022/01/20 15:25:06;;;;;;;2.53;0.90;;;-0.20;99.90;;;;;;5066476;28;20436;-71
2022/01/20 15:27:54;;;;;;;1.23;0.83;;;-0.20;99.90;;;;;;5059225;28;20468;-71
2022/01/20 15:30:41;;;;;;;0.50;0.50;;;-0.10;99.90;;;;;;5067952;28;20455;-71
2022/01/20 15:33:28;;;;;;;0.40;0.40;;;0.00;99.90;;;;;;5085759;28;20431;-71
2022/01/20 15:36:20;;;;;;;2.50;0.50;;;0.10;99.90;;;;;;5103405;28;20428;-71
2022/01/20 15:39:09;;;;;;;1.00;1.00;;;0.20;99.90;;;;;;5071796;28;20421;-70